Lai Airport


Codes: FTTH/LTC
Name: Lai Airport
City: Lai
Country: Chad
Elevation: 1171 ft.

Photos at Lai Airport


   Photos courtesy of SpottingLog. You can add your own sightings and photos by signing up for a free trial today.



No photos found.

Weather at Lai Airport


Time (UTC)DescriptionTempratureWindCloud coverageVisibilityPressureHumidity
16-Jun-2024 00:00Overcast Clouds24°C4 mph, S99%10000m1010hPa83%
16-Jun-2024 03:00Overcast Clouds24°C2 mph, SE99%10000m1010hPa83%
16-Jun-2024 06:00Moderate Rain24°C9 mph, NE100%10000m1013hPa85%
16-Jun-2024 09:00Light Rain23°C2 mph, NW100%10000m1012hPa88%
16-Jun-2024 12:00Overcast Clouds25°C4 mph, SE100%10000m1010hPa73%
16-Jun-2024 15:00Overcast Clouds27°C4 mph, SE100%10000m1008hPa65%
16-Jun-2024 18:00Overcast Clouds26°C2 mph, NE94%10000m1009hPa69%
16-Jun-2024 21:00Overcast Clouds25°C0 mph, NE90%10000m1011hPa72%
17-Jun-2024 00:00Overcast Clouds25°C4 mph, SW95%10000m1011hPa75%
17-Jun-2024 03:00Overcast Clouds24°C4 mph, SW95%10000m1011hPa80%
17-Jun-2024 06:00Overcast Clouds25°C7 mph, SW97%10000m1012hPa78%
17-Jun-2024 09:00Overcast Clouds30°C7 mph, SW100%10000m1013hPa58%
17-Jun-2024 12:00Overcast Clouds34°C4 mph, SW100%10000m1010hPa42%
17-Jun-2024 15:00Overcast Clouds34°C7 mph, S92%10000m1008hPa42%
17-Jun-2024 18:00Overcast Clouds30°C2 mph, W96%10000m1008hPa53%
17-Jun-2024 21:00Light Rain27°C2 mph, E76%10000m1011hPa71%
18-Jun-2024 00:00Light Rain26°C4 mph, S87%10000m1010hPa71%
18-Jun-2024 03:00Overcast Clouds25°C9 mph, S99%10000m1010hPa73%
18-Jun-2024 06:00Light Rain23°C7 mph, SE100%10000m1014hPa82%
18-Jun-2024 09:00Overcast Clouds26°C9 mph, SW100%10000m1012hPa71%
18-Jun-2024 12:00Overcast Clouds31°C2 mph, NW100%10000m1010hPa49%
18-Jun-2024 15:00Overcast Clouds32°C4 mph, N99%10000m1009hPa47%
18-Jun-2024 18:00Overcast Clouds28°C4 mph, NW97%10000m1009hPa61%
18-Jun-2024 21:00Few Clouds27°C4 mph, NW19%10000m1010hPa66%
19-Jun-2024 00:00Broken Clouds27°C2 mph, SE56%10000m1009hPa64%
19-Jun-2024 03:00Light Rain25°C7 mph, S87%10000m1009hPa76%
19-Jun-2024 06:00Overcast Clouds26°C7 mph, S93%10000m1011hPa71%
19-Jun-2024 09:00Light Rain24°C13 mph, SE100%10000m1014hPa76%
19-Jun-2024 12:00Overcast Clouds30°C4 mph, SE100%10000m1010hPa51%
19-Jun-2024 15:00Overcast Clouds32°C7 mph, S100%10000m1007hPa40%
19-Jun-2024 18:00Overcast Clouds28°C7 mph, SE98%10000m1009hPa54%
19-Jun-2024 21:00Overcast Clouds25°C4 mph, SE93%10000m1011hPa63%
20-Jun-2024 00:00Overcast Clouds25°C4 mph, SE97%10000m1010hPa64%
20-Jun-2024 03:00Overcast Clouds24°C4 mph, SE100%10000m1010hPa67%
20-Jun-2024 06:00Overcast Clouds25°C7 mph, SE100%10000m1011hPa66%
20-Jun-2024 09:00Overcast Clouds32°C7 mph, S96%10000m1011hPa42%
20-Jun-2024 12:00Broken Clouds37°C7 mph, S84%10000m1007hPa30%
20-Jun-2024 15:00Broken Clouds37°C7 mph, SE70%10000m1005hPa26%
20-Jun-2024 18:00Overcast Clouds32°C2 mph, SE85%10000m1006hPa38%
20-Jun-2024 21:00Overcast Clouds30°C2 mph, E85%10000m1008hPa42%